Terminal Aerodrome Forecast
Issued by NWS Bismarck, ND

Home | Current Version | Previous Version | Graphics & Text | Print | Product List | Glossary On
Versions: 1 2 3 4 5 6 7 8 9 10 11 12 13 14 15 16 17 18 19 20 21 22 23 24
307
FTUS43 KBIS 100804 AAB
TAFBIS
TAF AMD
KBIS 100804Z 1008/1106 08003KT P6SM VCFG OVC004
      TEMPO 1008/1012 1SM BR OVC001
     FM101800 10007KT P6SM -SN OVC015
     FM110500 08008KT 3SM -SN BR OVC025=

USA.gov is the U.S. government's official web portal to all federal, state and local government web resources and services.